Time;durP1;ratioP1;P1;durP2;ratioP2;P2;SDS_P1;SDS_P2;PMS_P1;PMS_P2;Temp;Humidity;BMP_temperature;BMP_pressure;BME280_temperature;BME280_humidity;BME280_pressure;Samples;Min_cycle;Max_cycle;Signal;HPM_P1;HPM_P2
2022/10/19 00:01:36;;;;;;;3.33;1.77;;;;;;;9.43;77.79;98479.25;5013056;28;20123;-64
2022/10/19 00:04:02;;;;;;;3.97;1.75;;;;;;;9.40;77.88;98474.47;5014111;28;20042;-63
2022/10/19 00:06:30;;;;;;;3.00;1.80;;;;;;;9.42;78.01;98469.72;5012633;28;20046;-63
2022/10/19 00:08:59;;;;;;;2.63;1.73;;;;;;;9.29;78.53;98472.78;4996157;28;20049;-63
2022/10/19 00:11:25;;;;;;;2.97;1.85;;;;;;;9.29;78.79;98462.19;5013877;28;20419;-63
2022/10/19 00:13:52;;;;;;;4.60;1.73;;;;;;;9.29;77.71;98460.38;5014062;28;20131;-63
2022/10/19 00:16:18;;;;;;;1.73;1.60;;;;;;;9.22;77.92;98451.84;4979677;28;20550;-64
2022/10/19 00:18:44;;;;;;;2.75;1.67;;;;;;;9.22;78.60;98438.63;5013620;28;20443;-63
2022/10/19 00:21:13;;;;;;;2.83;1.38;;;;;;;9.25;77.93;98438.09;4996091;28;20044;-63
2022/10/19 00:23:39;;;;;;;4.20;1.65;;;;;;;9.30;78.38;98442.66;5013550;28;20033;-63
2022/10/19 00:26:05;;;;;;;3.47;1.35;;;;;;;9.32;78.17;98438.72;5012393;28;20057;-63
2022/10/19 00:28:31;;;;;;;1.25;1.15;;;;;;;9.36;77.46;98440.84;5012646;28;20459;-63
2022/10/19 00:31:01;;;;;;;2.00;1.40;;;;;;;9.41;77.82;98441.69;5012283;28;20414;-62
2022/10/19 00:33:27;;;;;;;;;;;;;;;9.44;77.88;98437.72;5014064;28;20041;-64
2022/10/19 00:35:52;;;;;;;1.90;1.40;;;;;;;9.44;77.20;98427.13;5012276;28;19929;-63
2022/10/19 00:38:20;;;;;;;1.42;1.30;;;;;;;9.43;77.04;98431.63;5013195;28;20080;-65
2022/10/19 00:40:46;;;;;;;6.18;1.67;;;;;;;9.45;77.62;98439.34;5013619;28;20216;-63
2022/10/19 00:43:21;;;;;;;2.38;1.40;;;;;;;9.47;77.94;98431.94;5013365;28;20034;-63
2022/10/19 00:45:47;;;;;;;1.38;1.27;;;;;;;9.43;77.53;98430.84;5013252;28;20050;-64
2022/10/19 00:48:17;;;;;;;2.20;1.30;;;;;;;9.38;77.19;98425.50;5011849;28;20048;-63
2022/10/19 00:50:44;;;;;;;1.27;1.17;;;;;;;9.39;77.25;98424.47;5012126;28;20045;-64
2022/10/19 00:53:09;;;;;;;1.55;1.45;;;;;;;9.39;77.71;98430.56;5011601;28;20041;-63
2022/10/19 00:55:36;;;;;;;2.83;1.40;;;;;;;9.40;77.22;98437.44;5011897;28;20042;-62
2022/10/19 00:58:02;;;;;;;1.95;1.50;;;;;;;9.39;77.92;98433.22;5011711;28;20084;-62
2022/10/19 01:00:28;;;;;;;3.95;2.10;;;;;;;9.38;77.44;98420.22;5013253;28;20131;-63
2022/10/19 01:02:53;;;;;;;3.40;1.90;;;;;;;9.36;77.97;98422.34;5011709;28;20037;-64
2022/10/19 01:05:20;;;;;;;2.83;1.80;;;;;;;9.33;77.60;98421.00;4995441;28;20042;-64
2022/10/19 01:07:45;;;;;;;3.25;1.98;;;;;;;9.33;77.80;98424.44;4995142;28;20034;-65
2022/10/19 01:10:11;;;;;;;2.42;1.50;;;;;;;9.30;77.92;98418.84;5012146;28;20045;-63
2022/10/19 01:13:11;;;;;;;1.92;1.70;;;;;;;9.31;78.05;98418.59;5011252;28;20045;-64
2022/10/19 01:15:47;;;;;;;2.57;1.50;;;;;;;9.27;77.86;98417.50;5012324;28;20119;-63
2022/10/19 01:18:20;;;;;;;2.90;1.67;;;;;;;9.30;77.41;98416.22;5010783;28;20809;-64
2022/10/19 01:21:00;;;;;;;1.60;1.50;;;;;;;9.29;77.77;98412.78;5011398;28;20049;-63
2022/10/19 01:23:47;;;;;;;2.70;1.38;;;;;;;9.32;77.17;98406.97;5012585;28;20057;-63
2022/10/19 01:26:34;;;;;;;2.25;1.63;;;;;;;9.37;77.02;98414.13;5012674;28;20088;-63
2022/10/19 01:29:30;;;;;;;2.05;1.52;;;;;;;9.40;76.59;98407.56;5012524;28;20045;-63
2022/10/19 01:32:04;;;;;;;1.50;1.40;;;;;;;9.40;77.09;98407.56;5012340;28;20049;-63
2022/10/19 01:34:55;;;;;;;2.13;1.73;;;;;;;9.43;77.89;98409.69;5011095;28;20132;-63
2022/10/19 01:37:23;;;;;;;2.38;2.00;;;;;;;9.43;77.26;98402.53;5010804;28;20427;-63
2022/10/19 01:39:55;;;;;;;3.92;2.58;;;;;;;9.40;77.18;98399.63;5012261;28;20574;-63
2022/10/19 01:42:31;;;;;;;6.13;4.57;;;;;;;9.38;77.84;98402.50;5027590;28;20155;-62
2022/10/19 01:44:59;;;;;;;6.63;4.60;;;;;;;9.30;78.32;98400.34;5012042;28;20049;-63
2022/10/19 01:47:29;;;;;;;6.15;4.57;;;;;;;9.28;78.78;98394.50;5010563;28;20058;-63
2022/10/19 01:50:02;;;;;;;5.68;4.22;;;;;;;9.21;78.17;98389.44;5001024;28;20049;-62
2022/10/19 01:52:30;;;;;;;6.88;5.47;;;;;;;9.24;78.37;98385.50;4991343;28;20038;-63
2022/10/19 01:54:57;;;;;;;8.40;6.45;;;;;;;9.27;78.44;98380.50;4974553;28;20050;-63
2022/10/19 01:57:28;;;;;;;4.60;4.07;;;;;;;9.32;77.89;98377.88;4991041;28;20105;-62
2022/10/19 01:59:53;;;;;;;;;;;;;;;9.34;77.31;98372.34;4988629;28;20527;-63
2022/10/19 02:02:20;;;;;;;3.80;2.58;;;;;;;9.37;77.18;98377.13;4990802;28;19968;-63
2022/10/19 02:04:47;;;;;;;4.78;2.50;;;;;;;9.36;78.09;98375.53;4992900;28;20046;-63
2022/10/19 02:07:14;;;;;;;4.13;2.83;;;;;;;9.32;78.31;98363.84;4991203;28;20039;-63
2022/10/19 02:09:40;;;;;;;7.13;3.30;;;;;;;9.28;78.18;98362.75;5026330;28;20038;-63
2022/10/19 02:12:08;;;;;;;2.78;2.22;;;;;;;9.18;77.93;98357.41;5010534;28;20056;-62
2022/10/19 02:14:39;;;;;;;3.92;2.80;;;;;;;9.08;77.69;98355.47;5010520;28;20040;-64
2022/10/19 02:17:09;;;;;;;2.78;1.92;;;;;;;8.97;78.16;98341.41;5010485;28;20068;-63
2022/10/19 02:19:34;;;;;;;3.47;2.17;;;;;;;8.90;78.98;98347.94;5011797;28;20053;-63
2022/10/19 02:22:00;;;;;;;3.10;2.20;;;;;;;8.87;78.78;98347.38;4994053;28;20526;-63
2022/10/19 02:24:26;;;;;;;2.95;1.80;;;;;;;8.88;78.73;98350.81;5010574;28;20044;-63
2022/10/19 02:26:52;;;;;;;2.50;1.90;;;;;;;8.85;78.53;98341.56;4994147;28;20136;-62
2022/10/19 02:29:18;;;;;;;3.50;2.20;;;;;;;8.87;78.61;98346.59;5011394;28;20046;-62
2022/10/19 02:31:44;;;;;;;2.88;2.22;;;;;;;8.94;78.58;98341.09;5011180;28;20111;-63
2022/10/19 02:34:10;;;;;;;3.13;2.03;;;;;;;8.89;78.81;98344.50;5011433;28;20038;-64
2022/10/19 02:36:36;;;;;;;2.30;1.60;;;;;;;8.79;77.62;98347.81;5011770;28;20054;-63
2022/10/19 02:39:02;;;;;;;2.25;1.50;;;;;;;8.66;78.21;98348.25;5011147;28;20525;-64
2022/10/19 02:41:43;;;;;;;2.38;1.63;;;;;;;8.61;77.91;98337.63;5011728;28;20050;-64
2022/10/19 02:44:32;;;;;;;2.17;1.73;;;;;;;8.62;78.42;98329.47;5011171;28;20042;-64
2022/10/19 02:47:05;;;;;;;2.57;1.80;;;;;;;8.69;78.51;98333.75;5011678;28;20080;-65
2022/10/19 02:49:33;;;;;;;3.83;1.95;;;;;;;8.71;78.70;98327.16;5010002;28;20045;-63
2022/10/19 02:52:09;;;;;;;2.10;1.90;;;;;;;8.62;78.00;98323.38;5010055;28;20046;-64
2022/10/19 02:54:36;;;;;;;2.75;1.80;;;;;;;8.59;78.58;98329.19;5009738;28;20487;-63
2022/10/19 02:57:03;;;;;;;2.05;1.70;;;;;;;8.50;78.13;98320.91;5009795;28;20439;-63
2022/10/19 02:59:29;;;;;;;2.75;1.65;;;;;;;8.46;78.59;98319.78;5009791;28;20096;-64
2022/10/19 03:01:54;;;;;;;1.80;1.55;;;;;;;8.39;78.88;98303.38;5010198;28;20046;-62
2022/10/19 03:04:20;;;;;;;3.28;2.00;;;;;;;8.38;79.38;98313.13;5011396;28;20038;-64
2022/10/19 03:06:46;;;;;;;3.83;2.28;;;;;;;8.39;79.99;98308.66;5011202;28;20529;-63
2022/10/19 03:09:11;;;;;;;2.75;2.13;;;;;;;8.37;79.47;98306.22;5011263;28;20041;-63
2022/10/19 03:11:37;;;;;;;5.65;3.00;;;;;;;8.35;79.77;98296.94;5011584;28;20498;-63
2022/10/19 03:14:03;;;;;;;3.25;2.95;;;;;;;8.33;80.23;98293.75;5009806;28;20042;-64
2022/10/19 03:16:28;;;;;;;4.88;3.22;;;;;;;8.26;80.49;98280.75;5009988;28;20491;-63
2022/10/19 03:18:54;;;;;;;5.53;3.70;;;;;;;8.18;80.58;98289.13;5010950;28;20396;-64
2022/10/19 03:21:19;;;;;;;4.13;3.08;;;;;;;8.15;80.09;98287.00;5011044;28;20046;-64
2022/10/19 03:23:45;;;;;;;3.90;3.00;;;;;;;8.06;79.85;98285.81;5011111;28;20042;-63
2022/10/19 03:26:13;;;;;;;5.97;3.20;;;;;;;8.06;80.86;98289.28;5011275;28;20128;-63
2022/10/19 03:28:39;;;;;;;5.47;3.47;;;;;;;8.09;81.13;98285.31;5009984;28;20415;-62
2022/10/19 03:31:05;;;;;;;5.20;3.47;;;;;;;8.15;81.25;98281.72;5011048;28;20054;-64
2022/10/19 03:33:30;;;;;;;10.27;4.78;;;;;;;8.14;81.11;98283.53;5011044;28;20045;-65
2022/10/19 03:36:15;;;;;;;9.63;4.93;;;;;;;8.15;81.08;98293.06;5009103;28;20545;-63
2022/10/19 03:38:41;;;;;;;11.60;5.95;;;;;;;8.17;81.29;98295.44;5009263;28;20435;-64
2022/10/19 03:41:07;;;;;;;11.40;5.18;;;;;;;8.17;81.20;98293.59;5011234;28;20042;-63
2022/10/19 03:43:33;;;;;;;11.05;5.15;;;;;;;8.09;81.96;98270.28;5014386;28;20779;-64
2022/10/19 03:45:59;;;;;;;11.27;6.30;;;;;;;8.14;81.51;98266.91;5014747;28;20051;-64
2022/10/19 03:48:24;;;;;;;9.85;5.25;;;;;;;8.20;81.67;98268.53;5014625;28;20046;-63
2022/10/19 03:51:01;;;;;;;5.82;3.92;;;;;;;8.15;80.50;98261.38;5014480;28;20054;-63
2022/10/19 03:53:27;;;;;;;7.57;3.83;;;;;;;8.12;80.83;98256.59;5014294;28;20042;-65
2022/10/19 03:56:02;;;;;;;5.50;3.58;;;;;;;8.08;81.27;98263.41;5012980;28;20038;-64
2022/10/19 03:58:28;;;;;;;7.35;4.40;;;;;;;8.12;80.87;98264.53;5003453;28;20112;-65
2022/10/19 04:00:54;;;;;;;7.25;4.15;;;;;;;8.17;80.47;98261.13;4993277;28;20509;-64
2022/10/19 04:03:19;;;;;;;6.50;3.97;;;;;;;8.16;79.91;98267.47;5002643;28;20046;-63
2022/10/19 04:05:45;;;;;;;5.47;3.70;;;;;;;8.09;79.99;98259.75;5014246;28;20054;-64
2022/10/19 04:08:11;;;;;;;5.78;3.65;;;;;;;8.05;80.77;98253.34;5012972;28;20056;-63
2022/10/19 04:10:36;;;;;;;10.02;4.97;;;;;;;8.03;81.08;98244.91;5014228;28;20050;-63
2022/10/19 04:13:02;;;;;;;5.65;4.15;;;;;;;8.05;80.63;98240.16;5012506;28;20033;-65
2022/10/19 04:15:27;;;;;;;6.75;3.75;;;;;;;8.00;80.99;98229.56;5013646;28;20269;-64
2022/10/19 04:17:53;;;;;;;6.47;3.42;;;;;;;7.92;80.90;98230.00;5009362;28;20589;-64
2022/10/19 04:20:18;;;;;;;11.00;4.53;;;;;;;7.89;81.30;98233.94;4994290;28;20515;-64
2022/10/19 04:22:44;;;;;;;8.52;4.55;;;;;;;7.85;81.90;98224.09;4996011;28;20499;-64
2022/10/19 04:25:11;;;;;;;8.27;4.95;;;;;;;7.90;80.84;98234.72;5012443;28;20096;-64
2022/10/19 04:27:37;;;;;;;9.05;4.38;;;;;;;7.89;80.79;98228.66;5013878;28;20034;-64
2022/10/19 04:30:03;;;;;;;8.77;4.60;;;;;;;7.90;80.84;98227.59;5012453;28;20041;-65
2022/10/19 04:32:29;;;;;;;11.23;5.30;;;;;;;7.89;80.71;98231.28;5013804;28;20046;-64
2022/10/19 04:34:55;;;;;;;9.65;5.30;;;;;;;7.80;81.56;98234.63;5013766;28;20411;-63
2022/10/19 04:37:20;;;;;;;8.40;4.55;;;;;;;7.84;80.97;98228.59;5012335;28;20057;-62
2022/10/19 04:39:46;;;;;;;8.10;4.70;;;;;;;7.89;80.80;98228.66;5013570;28;20048;-64
2022/10/19 04:42:11;;;;;;;8.35;4.00;;;;;;;7.95;80.24;98227.66;5013748;28;20132;-65
2022/10/19 04:44:37;;;;;;;5.32;3.97;;;;;;;7.90;80.48;98229.44;5013325;28;20038;-64
2022/10/19 04:47:03;;;;;;;5.15;3.65;;;;;;;7.94;80.53;98222.63;5012201;28;20104;-64
2022/10/19 04:49:28;;;;;;;5.68;3.47;;;;;;;7.96;80.74;98217.91;5012251;28;20096;-64
2022/10/19 04:51:54;;;;;;;6.07;3.80;;;;;;;7.93;80.76;98213.91;5013569;28;20045;-64
2022/10/19 04:54:20;;;;;;;5.38;3.75;;;;;;;7.91;80.83;98221.28;5012423;28;20046;-65
2022/10/19 04:56:46;;;;;;;6.78;4.00;;;;;;;7.94;80.85;98222.63;5013502;28;20343;-61
2022/10/19 04:59:12;;;;;;;7.38;4.30;;;;;;;7.90;81.06;98211.75;5012763;28;20562;-65
2022/10/19 05:01:40;;;;;;;7.47;4.38;;;;;;;7.95;81.25;98218.94;5013194;28;20038;-63
2022/10/19 05:04:05;;;;;;;9.95;4.40;;;;;;;7.88;80.94;98219.16;5012703;28;20050;-65
2022/10/19 05:06:31;;;;;;;6.90;4.22;;;;;;;7.84;81.13;98212.75;5011759;28;20452;-63
2022/10/19 05:08:57;;;;;;;7.53;4.18;;;;;;;7.87;80.91;98222.03;5012463;28;20049;-65
2022/10/19 05:11:23;;;;;;;9.38;4.00;;;;;;;7.78;81.44;98224.31;5013015;28;20088;-63
2022/10/19 05:13:49;;;;;;;10.85;4.38;;;;;;;7.83;81.02;98220.94;5012864;28;20073;-64
2022/10/19 05:16:17;;;;;;;6.32;3.85;;;;;;;7.80;81.60;98218.78;5012602;28;20045;-63
2022/10/19 05:18:49;;;;;;;5.63;3.90;;;;;;;7.88;81.40;98223.59;5011541;28;20069;-65
2022/10/19 05:21:15;;;;;;;8.10;4.15;;;;;;;7.92;80.70;98214.97;5011266;28;20046;-64
2022/10/19 05:23:41;;;;;;;5.55;3.85;;;;;;;7.95;80.27;98213.69;5012440;28;20060;-65
2022/10/19 05:26:18;;;;;;;7.03;4.32;;;;;;;7.87;80.95;98207.00;5011062;28;20499;-63
2022/10/19 05:28:48;;;;;;;5.78;3.92;;;;;;;7.89;80.97;98196.19;5012412;28;20030;-65
2022/10/19 05:31:17;;;;;;;6.95;4.05;;;;;;;7.82;80.98;98206.13;5011143;28;20045;-65
2022/10/19 05:33:43;;;;;;;7.80;5.35;;;;;;;7.82;81.24;98200.84;5027113;28;20503;-65
2022/10/19 05:36:10;;;;;;;7.22;4.55;;;;;;;7.73;81.63;98214.50;5010827;28;20100;-65
2022/10/19 05:38:35;;;;;;;12.25;5.47;;;;;;;7.69;81.93;98209.97;5012043;28;20049;-65
2022/10/19 05:41:01;;;;;;;8.05;5.07;;;;;;;7.65;81.76;98214.16;5011952;28;20041;-65
2022/10/19 05:43:26;;;;;;;8.55;4.90;;;;;;;7.73;81.76;98213.69;5007400;28;20396;-64
2022/10/19 05:45:52;;;;;;;6.65;4.25;;;;;;;7.74;81.31;98204.75;4992646;28;20518;-65
2022/10/19 05:48:18;;;;;;;7.28;4.55;;;;;;;7.81;81.63;98199.28;4995770;28;20038;-66
2022/10/19 05:50:53;;;;;;;7.57;5.03;;;;;;;7.82;80.83;98198.22;5012207;28;20096;-67
2022/10/19 05:53:19;;;;;;;7.93;5.03;;;;;;;7.76;81.48;98191.31;5011833;28;20063;-69
2022/10/19 05:55:44;;;;;;;8.13;5.10;;;;;;;7.70;82.05;98190.44;5011449;28;20052;-69
2022/10/19 05:58:10;;;;;;;8.90;4.90;;;;;;;7.74;82.35;98184.44;5009221;28;20061;-67
2022/10/19 06:00:36;;;;;;;9.38;5.18;;;;;;;7.79;82.29;98188.97;5009671;28;20510;-64
2022/10/19 06:03:01;;;;;;;10.52;5.35;;;;;;;7.70;82.74;98193.09;5008677;28;20038;-67
2022/10/19 06:05:27;;;;;;;8.48;5.28;;;;;;;7.67;82.39;98194.38;5008028;28;20049;-67
2022/10/19 06:07:53;;;;;;;8.70;5.13;;;;;;;7.67;82.29;98196.22;5009447;28;20041;-64
2022/10/19 06:10:20;;;;;;;9.68;5.78;;;;;;;7.60;82.58;98190.34;4977287;28;20033;-68
2022/10/19 06:12:46;;;;;;;8.63;5.03;;;;;;;7.64;82.62;98191.44;5007034;28;20123;-66
2022/10/19 06:15:11;;;;;;;8.43;5.28;;;;;;;7.65;82.43;98191.22;5008942;28;20038;-66
2022/10/19 06:17:37;;;;;;;7.32;4.85;;;;;;;7.70;82.13;98185.19;5009442;28;20049;-66
2022/10/19 06:20:03;;;;;;;7.45;5.00;;;;;;;7.68;82.57;98185.44;5008609;28;20164;-66
2022/10/19 06:22:29;;;;;;;8.32;5.30;;;;;;;7.64;82.70;98186.97;5009709;28;20121;-66
2022/10/19 06:24:55;;;;;;;9.30;6.00;;;;;;;7.62;82.69;98185.63;4976748;28;20418;-66
2022/10/19 06:27:21;;;;;;;8.68;5.22;;;;;;;7.55;82.54;98188.44;5009379;28;20042;-66
2022/10/19 06:29:47;;;;;;;9.80;5.53;;;;;;;7.54;83.19;98180.78;5010998;28;20042;-68
2022/10/19 06:32:12;;;;;;;8.75;5.28;;;;;;;7.50;82.61;98175.22;5010727;28;20510;-66
2022/10/19 06:34:38;;;;;;;7.75;5.03;;;;;;;7.54;82.65;98178.16;5010777;28;20056;-66
2022/10/19 06:37:05;;;;;;;8.88;5.57;;;;;;;7.56;82.74;98176.88;5009161;28;20112;-67
2022/10/19 06:39:31;;;;;;;9.18;5.65;;;;;;;7.57;82.73;98173.19;5008161;28;20137;-65
2022/10/19 06:41:56;;;;;;;11.57;5.47;;;;;;;7.58;82.97;98179.25;5008919;28;20140;-66
2022/10/19 06:44:24;;;;;;;9.07;5.07;;;;;;;7.62;82.69;98180.34;4992908;28;20042;-66
2022/10/19 06:46:49;;;;;;;8.10;5.47;;;;;;;7.61;82.84;98176.13;5009098;28;20048;-67
2022/10/19 06:49:15;;;;;;;8.60;5.30;;;;;;;7.56;83.11;98173.41;4991913;28;20455;-69
2022/10/19 06:51:41;;;;;;;8.45;5.57;;;;;;;7.58;82.97;98173.97;5009740;28;20342;-70
2022/10/19 06:54:07;;;;;;;9.32;6.00;;;;;;;7.59;82.82;98179.00;5007727;28;20092;-68
2022/10/19 06:56:33;;;;;;;9.40;5.43;;;;;;;7.53;82.61;98168.63;5007692;28;20062;-68
2022/10/19 06:58:59;;;;;;;8.98;5.95;;;;;;;7.56;82.42;98181.31;4992412;28;20092;-69
2022/10/19 07:01:25;;;;;;;9.23;5.70;;;;;;;7.57;82.62;98172.38;5007535;28;20450;-67
2022/10/19 07:03:51;;;;;;;10.27;5.80;;;;;;;7.60;82.15;98174.53;5009782;28;20056;-69
2022/10/19 07:06:17;;;;;;;8.60;5.60;;;;;;;7.61;82.33;98171.63;4992385;28;20144;-65
2022/10/19 07:08:43;;;;;;;9.32;6.10;;;;;;;7.61;82.37;98170.84;5009671;28;20467;-66
2022/10/19 07:11:12;;;;;;;10.13;6.32;;;;;;;7.57;81.80;98167.91;5010877;28;20061;-69
2022/10/19 07:13:37;;;;;;;10.30;6.60;;;;;;;7.56;82.11;98171.59;4976575;28;20510;-63
2022/10/19 07:16:06;;;;;;;11.00;6.78;;;;;;;7.56;82.65;98170.78;5011002;28;20038;-64
2022/10/19 07:18:35;;;;;;;10.70;6.55;;;;;;;7.60;82.67;98162.13;5012765;28;20500;-63
2022/10/19 07:21:03;;;;;;;9.82;6.43;;;;;;;7.62;82.54;98164.53;5011905;28;20057;-64
2022/10/19 07:23:30;;;;;;;11.15;6.85;;;;;;;7.70;82.58;98164.06;5010905;28;20074;-65
2022/10/19 07:26:00;;;;;;;11.98;7.13;;;;;;;7.76;82.52;98160.44;5013302;28;20120;-62
2022/10/19 07:28:27;;;;;;;11.77;7.60;;;;;;;7.87;81.56;98164.78;5013431;28;20034;-63
2022/10/19 07:30:52;;;;;;;13.52;7.90;;;;;;;7.92;80.88;98167.47;5013461;28;20038;-63
2022/10/19 07:33:18;;;;;;;13.68;7.20;;;;;;;7.95;81.12;98166.19;5013725;28;20111;-66
2022/10/19 07:35:44;;;;;;;13.73;7.68;;;;;;;7.99;81.10;98156.69;5014061;28;20042;-63
2022/10/19 07:38:10;;;;;;;11.95;7.30;;;;;;;8.11;80.86;98169.75;5013349;28;20041;-64
2022/10/19 07:40:36;;;;;;;12.48;7.75;;;;;;;8.13;80.45;98165.00;5014576;28;20050;-66
2022/10/19 07:43:02;;;;;;;12.07;7.20;;;;;;;8.08;80.34;98163.13;4980206;28;20137;-65
2022/10/19 07:45:28;;;;;;;14.90;7.80;;;;;;;8.01;80.91;98162.53;5012313;28;20100;-65
2022/10/19 07:47:55;;;;;;;14.90;7.93;;;;;;;7.96;81.05;98155.34;5014428;28;20048;-65
2022/10/19 07:50:23;;;;;;;15.10;8.10;;;;;;;8.01;80.70;98154.63;5013987;28;20081;-66
2022/10/19 07:52:51;;;;;;;13.93;8.05;;;;;;;8.03;80.75;98157.00;5011677;28;20042;-65
2022/10/19 07:55:16;;;;;;;13.30;8.07;;;;;;;8.11;80.88;98156.53;5011600;28;21737;-64
2022/10/19 07:57:46;;;;;;;12.30;7.13;;;;;;;8.16;80.37;98164.50;5011633;28;20108;-65
2022/10/19 08:00:12;;;;;;;11.75;7.63;;;;;;;8.23;80.67;98156.38;5012209;28;20049;-65
2022/10/19 08:02:40;;;;;;;10.80;7.38;;;;;;;8.23;79.53;98159.81;5014065;28;20472;-64
2022/10/19 08:05:06;;;;;;;9.68;7.25;;;;;;;8.26;79.73;98163.78;4996148;28;20136;-64
2022/10/19 08:07:32;;;;;;;11.95;7.70;;;;;;;8.22;80.68;98165.34;5013732;28;20076;-65
2022/10/19 08:09:58;;;;;;;11.65;7.65;;;;;;;8.16;81.68;98161.88;5011469;28;20038;-65
2022/10/19 08:12:24;;;;;;;13.73;8.23;;;;;;;8.13;81.65;98157.88;5013884;28;20529;-65
2022/10/19 08:14:49;;;;;;;12.30;7.78;;;;;;;8.18;81.58;98160.56;5013489;28;20542;-65
2022/10/19 08:17:16;;;;;;;11.85;7.75;;;;;;;8.15;81.90;98158.44;5013921;28;20491;-64
2022/10/19 08:19:43;;;;;;;11.80;7.53;;;;;;;8.21;82.41;98159.28;5005981;28;20129;-65
2022/10/19 08:22:09;;;;;;;12.27;7.70;;;;;;;8.19;82.31;98159.53;4993705;28;20064;-63
2022/10/19 08:24:34;;;;;;;11.63;7.55;;;;;;;8.24;81.62;98160.63;4993571;28;20074;-64
2022/10/19 08:27:01;;;;;;;13.30;7.90;;;;;;;8.29;82.06;98155.38;4993769;28;20511;-62
2022/10/19 08:29:27;;;;;;;10.40;6.97;;;;;;;8.21;81.17;98143.44;4992071;28;20069;-63
2022/10/19 08:31:53;;;;;;;10.10;6.95;;;;;;;8.19;81.47;98143.69;4992476;28;20508;-63
2022/10/19 08:34:18;;;;;;;11.52;7.43;;;;;;;8.24;81.49;98150.06;4992786;28;20523;-62
2022/10/19 08:36:44;;;;;;;11.40;7.32;;;;;;;8.29;81.15;98164.06;4990701;28;20109;-63
2022/10/19 08:39:12;;;;;;;11.38;7.25;;;;;;;8.30;81.57;98154.34;4990890;28;20092;-65
2022/10/19 08:41:58;;;;;;;10.00;6.25;;;;;;;8.25;80.89;98157.72;4993467;28;20038;-65
2022/10/19 08:44:33;;;;;;;10.35;6.63;;;;;;;8.22;80.59;98152.94;4992339;28;20134;-65
2022/10/19 08:47:14;;;;;;;13.70;6.95;;;;;;;8.23;81.10;98159.00;4992521;28;20362;-64
2022/10/19 08:49:40;;;;;;;10.52;6.60;;;;;;;8.29;81.15;98153.50;4994115;28;20113;-65
2022/10/19 08:52:12;;;;;;;10.27;6.80;;;;;;;8.28;81.03;98157.22;4994079;28;20100;-63
2022/10/19 08:54:58;;;;;;;12.55;7.03;;;;;;;8.35;80.89;98155.16;4992455;28;20310;-66
2022/10/19 08:57:30;;;;;;;10.27;6.75;;;;;;;8.38;80.83;98157.34;4992045;28;20157;-61
2022/10/19 09:00:16;;;;;;;11.30;7.03;;;;;;;8.38;80.16;98162.63;4993526;28;20463;-62
2022/10/19 09:03:01;;;;;;;9.55;5.90;;;;;;;8.41;80.38;98169.22;4991818;28;20053;-63
2022/10/19 09:05:40;;;;;;;11.23;5.82;;;;;;;8.28;81.17;98159.06;4993450;28;20050;-60
2022/10/19 09:08:07;;;;;;;11.02;6.15;;;;;;;8.33;80.75;98169.66;4992183;28;20096;-60
2022/10/19 09:10:39;;;;;;;9.25;5.85;;;;;;;8.39;80.21;98164.19;4993210;28;20046;-62
2022/10/19 09:13:13;;;;;;;8.32;5.90;;;;;;;8.29;80.90;98179.91;4993415;28;20117;-61
2022/10/19 09:15:50;;;;;;;12.27;6.65;;;;;;;8.32;80.91;98174.13;4993591;28;20133;-61
2022/10/19 09:18:22;;;;;;;11.82;6.63;;;;;;;8.28;81.51;98173.06;4993450;28;20046;-60
2022/10/19 09:20:50;;;;;;;11.55;6.18;;;;;;;8.33;81.77;98178.38;4975522;28;20539;-61
2022/10/19 09:23:25;;;;;;;9.80;6.70;;;;;;;8.32;81.66;98182.06;4991780;28;20054;-62
2022/10/19 09:25:51;;;;;;;9.68;6.45;;;;;;;8.27;81.38;98170.69;4993122;28;20053;-57
2022/10/19 09:28:35;;;;;;;10.93;6.63;;;;;;;8.31;82.64;98177.03;4990246;28;20173;-60
2022/10/19 09:31:02;;;;;;;11.35;6.78;;;;;;;8.41;81.36;98177.13;4993171;28;20050;-61
2022/10/19 09:33:32;;;;;;;8.23;5.90;;;;;;;8.38;81.55;98178.47;4989377;28;20096;-63
2022/10/19 09:35:58;;;;;;;8.32;5.47;;;;;;;8.32;81.75;98178.63;4990777;28;20046;-60
2022/10/19 09:38:26;;;;;;;9.90;5.95;;;;;;;8.31;82.25;98174.41;4990883;28;20070;-60
2022/10/19 09:40:52;;;;;;;11.40;5.40;;;;;;;8.29;82.18;98177.28;4973727;28;20058;-60
2022/10/19 09:43:19;;;;;;;10.57;5.97;;;;;;;8.24;81.72;98177.25;4991131;28;20510;-62
2022/10/19 09:45:48;;;;;;;11.55;6.53;;;;;;;8.21;83.24;98175.13;4972020;28;20043;-61
2022/10/19 09:48:29;;;;;;;13.55;6.80;;;;;;;8.07;83.03;98173.94;4992237;28;20046;-60
2022/10/19 09:51:00;;;;;;;12.10;6.68;;;;;;;8.21;83.42;98180.41;4989112;28;20096;-60
2022/10/19 09:53:27;;;;;;;10.48;6.38;;;;;;;8.27;82.76;98182.03;5005964;28;20050;-60
2022/10/19 09:56:02;;;;;;;15.80;7.60;;;;;;;8.12;83.17;98171.34;5005911;28;20057;-60
2022/10/19 09:58:29;;;;;;;9.55;5.97;;;;;;;8.15;83.63;98174.28;4991606;28;20422;-59
2022/10/19 10:00:56;;;;;;;8.52;5.32;;;;;;;8.03;82.00;98164.91;4992199;28;20046;-60
2022/10/19 10:03:28;;;;;;;9.63;5.90;;;;;;;7.97;81.99;98178.06;4991579;28;20119;-60
2022/10/19 10:06:01;;;;;;;8.82;5.22;;;;;;;7.87;82.83;98183.25;4990745;28;20046;-61
2022/10/19 10:08:32;;;;;;;7.93;5.63;;;;;;;7.91;82.82;98176.44;4991950;28;20519;-60
2022/10/19 10:11:12;;;;;;;8.27;5.00;;;;;;;8.00;81.76;98178.59;4991000;28;20057;-61
2022/10/19 10:13:39;;;;;;;;;;;;;;;7.93;82.32;98173.53;5007539;28;20046;-59
2022/10/19 10:16:07;;;;;;;9.13;5.63;;;;;;;7.94;81.54;98173.31;4991212;28;19926;-60
2022/10/19 10:18:37;;;;;;;9.60;6.13;;;;;;;7.95;82.40;98168.81;4990772;28;20057;-61
2022/10/19 10:21:14;;;;;;;11.23;6.85;;;;;;;8.04;81.98;98166.53;5007363;28;20500;-61
2022/10/19 10:23:40;;;;;;;9.10;6.00;;;;;;;8.07;82.14;98176.56;4990977;28;20401;-61
2022/10/19 10:26:18;;;;;;;9.00;5.78;;;;;;;7.97;81.84;98170.16;4992539;28;20061;-60
2022/10/19 10:28:49;;;;;;;9.10;4.60;;;;;;;8.02;80.57;98172.03;4991854;28;20050;-60
2022/10/19 10:31:18;;;;;;;6.57;4.32;;;;;;;8.05;80.70;98171.53;4973801;28;20129;-61
2022/10/19 10:33:53;;;;;;;7.18;4.40;;;;;;;8.19;79.58;98156.09;4990095;28;20053;-62
2022/10/19 10:36:22;;;;;;;7.55;4.38;;;;;;;8.37;79.58;98155.69;4974494;28;20116;-60
2022/10/19 10:39:04;;;;;;;7.40;4.55;;;;;;;8.43;78.29;98151.28;4992168;28;20045;-62
2022/10/19 10:41:36;;;;;;;7.35;5.07;;;;;;;8.50;78.44;98143.13;4988800;28;20508;-61
2022/10/19 10:44:06;;;;;;;6.95;4.38;;;;;;;8.61;78.65;98139.50;4973251;28;20034;-59
2022/10/19 10:46:34;;;;;;;13.40;5.70;;;;;;;8.59;78.69;98137.13;4990205;28;20054;-58
2022/10/19 10:49:07;;;;;;;8.55;5.18;;;;;;;8.59;78.11;98129.22;4991291;28;20522;-60
2022/10/19 10:51:46;;;;;;;10.90;6.18;;;;;;;8.78;78.75;98139.34;4989320;28;20050;-59
2022/10/19 10:54:19;;;;;;;9.07;5.47;;;;;;;8.91;77.19;98141.53;4991377;28;20399;-59
2022/10/19 10:57:08;;;;;;;9.07;5.07;;;;;;;8.96;76.86;98156.63;4989514;28;20093;-60
2022/10/19 10:59:40;;;;;;;7.63;4.03;;;;;;;9.07;75.21;98145.06;4988418;28;20500;-60
2022/10/19 11:02:33;;;;;;;5.30;3.78;;;;;;;9.31;75.83;98148.84;4987753;28;20089;-60
2022/10/19 11:05:09;;;;;;;4.60;3.38;;;;;;;9.43;73.06;98150.47;4985978;28;20044;-60
2022/10/19 11:07:39;;;;;;;7.50;3.20;;;;;;;9.24;73.78;98153.59;5002649;28;20046;-60
2022/10/19 11:10:50;;;;;;;4.18;2.70;;;;;;;9.09;73.31;98141.09;4985372;28;20046;-61
2022/10/19 11:13:17;;;;;;;;;;;;;;;8.96;73.97;98138.13;4987810;28;20086;-62
2022/10/19 11:16:02;;;;;;;4.18;2.60;;;;;;;8.86;72.91;98131.75;4987080;28;19932;-60
2022/10/19 11:18:42;;;;;;;6.57;3.00;;;;;;;8.61;73.35;98118.38;4987282;28;20031;-60
2022/10/19 11:21:11;;;;;;;;;;;;;;;8.70;73.55;98135.34;4988488;28;20587;-59
2022/10/19 11:23:55;;;;;;;4.30;3.60;;;;;;;8.77;73.33;98141.22;4988873;28;19921;-60
2022/10/19 11:26:30;;;;;;;6.53;3.53;;;;;;;8.81;72.86;98149.41;4987244;28;20043;-60
2022/10/19 11:29:28;;;;;;;5.55;3.65;;;;;;;8.88;73.87;98147.31;4987305;28;20045;-60
2022/10/19 11:31:55;;;;;;;6.00;3.78;;;;;;;8.91;72.88;98144.16;4987845;28;20050;-58
2022/10/19 11:34:51;;;;;;;6.05;3.63;;;;;;;9.02;73.97;98147.66;4987815;28;20581;-59
2022/10/19 11:37:17;;;;;;;4.78;3.30;;;;;;;9.02;72.59;98151.09;4990353;28;20506;-59
2022/10/19 11:40:03;;;;;;;4.88;3.30;;;;;;;9.00;72.94;98162.97;4988993;28;20042;-59
2022/10/19 11:42:46;;;;;;;6.35;3.83;;;;;;;9.07;72.48;98160.91;4990792;28;20491;-59
2022/10/19 11:45:31;;;;;;;6.15;3.20;;;;;;;9.03;72.50;98154.53;4971839;28;20050;-59
2022/10/19 11:48:24;;;;;;;4.88;3.33;;;;;;;9.01;72.64;98152.16;4988847;28;20042;-59
2022/10/19 11:51:12;;;;;;;4.82;3.03;;;;;;;9.03;71.67;98136.03;4988371;28;20129;-60
2022/10/19 11:54:15;;;;;;;6.57;2.90;;;;;;;8.86;73.29;98158.16;4986929;28;20038;-61